Time;durP1;ratioP1;P1;durP2;ratioP2;P2;SDS_P1;SDS_P2;PMS_P1;PMS_P2;Temp;Humidity;BMP_temperature;BMP_pressure;BME280_temperature;BME280_humidity;BME280_pressure;Samples;Min_cycle;Max_cycle;Signal;HPM_P1;HPM_P2
2022/01/03 00:01:24;;;;;;;9.27;1.42;;;8.90;99.90;;;;;;5099134;28;20051;-89
2022/01/03 00:03:49;;;;;;;17.33;1.92;;;8.90;99.90;;;;;;5094328;28;20044;-88
2022/01/03 00:06:19;;;;;;;9.32;1.00;;;8.90;99.90;;;;;;5130696;27;20124;-89
2022/01/03 00:08:44;;;;;;;10.27;1.15;;;8.90;99.90;;;;;;5092459;28;20040;-88
2022/01/03 00:11:19;;;;;;;13.30;1.30;;;9.00;99.90;;;;;;5090402;28;20389;-87
2022/01/03 00:13:47;;;;;;;11.40;1.52;;;9.00;99.90;;;;;;5128125;27;20047;-87
2022/01/03 00:16:13;;;;;;;13.38;1.50;;;9.00;99.90;;;;;;5091389;28;20082;-87
2022/01/03 00:18:39;;;;;;;18.60;1.83;;;9.00;99.90;;;;;;5097847;28;20122;-86
2022/01/03 00:21:12;;;;;;;15.25;1.40;;;9.10;99.90;;;;;;5093630;28;20047;-87
2022/01/03 00:23:39;;;;;;;13.38;1.77;;;9.10;99.90;;;;;;5092455;28;20039;-87
2022/01/03 00:26:08;;;;;;;14.60;1.90;;;9.10;99.90;;;;;;5094452;28;20059;-88
2022/01/03 00:28:55;;;;;;;20.45;2.15;;;9.20;99.90;;;;;;5102591;28;20540;-89
2022/01/03 00:31:24;;;;;;;17.63;2.08;;;9.20;99.90;;;;;;5126345;27;20044;-88
2022/01/03 00:33:54;;;;;;;15.88;2.22;;;9.10;99.90;;;;;;5106360;27;20088;-87
2022/01/03 00:36:20;;;;;;;14.60;1.70;;;9.20;99.90;;;;;;5098430;28;20495;-86
2022/01/03 00:38:46;;;;;;;18.40;2.33;;;9.20;99.90;;;;;;5091433;28;20040;-83
2022/01/03 00:41:12;;;;;;;16.48;2.58;;;9.20;99.90;;;;;;5093549;28;20047;-85
2022/01/03 00:43:39;;;;;;;22.75;3.38;;;9.30;99.90;;;;;;5090624;28;20040;-84
2022/01/03 00:46:04;;;;;;;17.05;2.35;;;9.20;99.90;;;;;;5091506;28;20085;-83
2022/01/03 00:48:32;;;;;;;18.55;2.10;;;9.30;99.90;;;;;;5125420;27;20478;-84
2022/01/03 00:51:02;;;;;;;22.13;3.33;;;9.20;99.90;;;;;;5091692;28;20479;-84
2022/01/03 00:53:28;;;;;;;19.30;3.00;;;9.30;99.90;;;;;;5128024;27;20051;-85
2022/01/03 00:56:04;;;;;;;18.02;2.42;;;9.30;99.90;;;;;;5088186;28;20033;-87
2022/01/03 00:58:36;;;;;;;16.92;2.97;;;9.30;99.90;;;;;;5094671;28;20036;-85
2022/01/03 01:01:04;;;;;;;21.38;3.20;;;9.30;99.90;;;;;;5092950;28;20051;-87
2022/01/03 01:03:36;;;;;;;26.58;3.28;;;9.30;99.90;;;;;;5090683;28;20036;-85
2022/01/03 01:06:04;;;;;;;29.13;3.47;;;9.40;99.90;;;;;;5093392;28;20043;-86
2022/01/03 01:08:33;;;;;;;18.80;3.17;;;9.30;99.90;;;;;;5090794;28;20095;-86
2022/01/03 01:11:02;;;;;;;31.48;4.43;;;9.30;99.90;;;;;;5098992;28;20036;-86
2022/01/03 01:13:29;;;;;;;23.50;3.22;;;9.30;99.90;;;;;;5083416;28;20058;-87
2022/01/03 01:15:54;;;;;;;24.95;3.70;;;9.30;99.90;;;;;;5094281;28;20050;-87
2022/01/03 01:18:23;;;;;;;21.15;4.03;;;9.30;99.90;;;;;;5095985;28;20032;-88
2022/01/03 01:20:49;;;;;;;26.13;2.92;;;9.20;99.90;;;;;;5091792;27;20369;-86
2022/01/03 01:23:14;;;;;;;23.77;3.88;;;9.20;99.90;;;;;;5088889;28;20051;-87
2022/01/03 01:28:09;;;;;;;20.98;4.18;;;9.20;99.90;;;;;;5124992;27;20067;-86
2022/01/03 01:30:35;;;;;;;21.67;3.00;;;9.20;99.90;;;;;;5090588;28;20039;-86
2022/01/03 01:33:05;;;;;;;21.23;3.53;;;9.20;99.90;;;;;;5088379;28;20097;-86
2022/01/03 01:36:09;;;;;;;21.67;3.13;;;9.20;99.90;;;;;;5108250;27;20039;-87
2022/01/03 01:38:38;;;;;;;20.42;3.17;;;9.30;99.90;;;;;;5086917;28;20062;-87
2022/01/03 01:41:06;;;;;;;23.25;3.90;;;9.20;99.90;;;;;;5118785;27;20036;-85
2022/01/03 01:43:40;;;;;;;23.52;3.38;;;9.30;99.90;;;;;;5089816;28;20035;-86
2022/01/03 01:46:13;;;;;;;28.73;4.10;;;9.30;99.90;;;;;;5088948;28;20126;-87
2022/01/03 01:48:42;;;;;;;21.25;4.45;;;9.30;99.90;;;;;;5089555;28;20345;-86
2022/01/03 01:51:09;;;;;;;21.92;4.97;;;9.30;99.90;;;;;;5090942;28;20458;-86
2022/01/03 01:53:44;;;;;;;26.58;3.50;;;9.30;99.90;;;;;;5094872;28;20448;-87
2022/01/03 01:56:17;;;;;;;20.70;2.95;;;9.30;99.90;;;;;;5092667;28;20040;-85
2022/01/03 01:59:12;;;;;;;16.67;2.88;;;9.30;99.90;;;;;;5088678;28;20028;-87
2022/01/03 02:02:04;;;;;;;25.92;3.92;;;9.20;99.90;;;;;;5089046;28;20044;-86
2022/01/03 02:04:48;;;;;;;27.85;3.38;;;9.20;99.90;;;;;;5091842;28;20043;-85
2022/01/03 02:07:23;;;;;;;22.70;4.63;;;9.20;99.90;;;;;;5091517;28;20051;-86
2022/01/03 02:09:56;;;;;;;;;;;9.20;99.90;;;;;;5075892;28;20048;-87
2022/01/03 02:12:26;;;;;;;13.40;2.53;;;9.20;99.90;;;;;;5091550;28;20504;-85
2022/01/03 02:14:57;;;;;;;21.85;3.15;;;9.20;99.90;;;;;;5088692;28;20040;-85
2022/01/03 02:17:22;;;;;;;19.30;3.03;;;9.20;99.90;;;;;;5093553;28;20047;-87
2022/01/03 02:20:12;;;;;;;18.60;3.08;;;9.20;99.90;;;;;;5090664;28;20441;-87
2022/01/03 02:22:39;;;;;;;23.52;4.85;;;9.30;99.90;;;;;;5087197;28;20032;-85
2022/01/03 02:25:07;;;;;;;22.40;4.22;;;9.20;99.90;;;;;;5089554;28;20064;-86
2022/01/03 02:27:33;;;;;;;20.15;3.28;;;9.40;99.90;;;;;;5092195;28;20039;-85
2022/01/03 02:29:59;;;;;;;25.17;3.20;;;9.20;99.90;;;;;;5091416;28;20067;-86
2022/01/03 02:32:25;;;;;;;24.77;3.03;;;9.20;99.90;;;;;;5085271;28;20062;-85
2022/01/03 02:34:51;;;;;;;23.40;4.75;;;9.10;99.90;;;;;;5126163;27;20440;-85
2022/01/03 02:37:16;;;;;;;26.15;4.93;;;9.10;99.90;;;;;;5091620;28;20524;-86
2022/01/03 02:39:43;;;;;;;25.00;4.47;;;9.10;99.90;;;;;;5076979;28;20055;-86
2022/01/03 02:42:08;;;;;;;21.83;2.80;;;9.00;99.90;;;;;;5092563;28;20036;-86
2022/01/03 02:44:34;;;;;;;23.30;3.78;;;9.00;99.90;;;;;;5092346;28;20089;-86
2022/01/03 02:47:00;;;;;;;20.27;3.58;;;9.00;99.90;;;;;;5093636;28;20036;-86
2022/01/03 02:49:26;;;;;;;24.90;3.83;;;9.00;99.90;;;;;;5088675;28;20024;-86
2022/01/03 02:51:51;;;;;;;21.38;3.30;;;9.00;99.90;;;;;;5093220;28;20047;-87
2022/01/03 02:54:17;;;;;;;29.33;3.85;;;9.00;99.90;;;;;;5089042;28;20035;-86
2022/01/03 02:56:43;;;;;;;23.25;3.60;;;9.00;99.90;;;;;;5093915;28;20062;-88
2022/01/03 02:59:13;;;;;;;18.95;3.33;;;9.00;99.90;;;;;;5086037;28;20509;-85
2022/01/03 03:01:43;;;;;;;22.92;4.47;;;8.90;99.90;;;;;;5093114;28;20111;-86
2022/01/03 03:04:09;;;;;;;21.75;3.30;;;8.90;99.90;;;;;;5094635;28;20051;-86
2022/01/03 03:06:35;;;;;;;23.30;4.15;;;8.90;99.90;;;;;;5085687;28;20044;-86
2022/01/03 03:09:04;;;;;;;30.95;3.97;;;8.90;99.90;;;;;;5089681;28;20040;-86
2022/01/03 03:11:35;;;;;;;16.95;3.80;;;8.90;99.90;;;;;;5089409;28;20104;-87
2022/01/03 03:14:01;;;;;;;24.98;4.00;;;8.80;99.90;;;;;;5086089;28;20484;-86
2022/01/03 03:16:27;;;;;;;23.25;3.72;;;8.80;99.90;;;;;;5073021;28;20051;-86
2022/01/03 03:18:52;;;;;;;26.73;4.35;;;8.80;99.90;;;;;;5087601;28;20036;-87
2022/01/03 03:21:18;;;;;;;24.70;3.80;;;8.70;99.90;;;;;;5088844;28;20036;-87
2022/01/03 03:23:44;;;;;;;27.67;4.57;;;8.70;99.90;;;;;;5089939;28;20118;-87
2022/01/03 03:26:10;;;;;;;28.92;4.68;;;8.70;99.90;;;;;;5089007;28;20047;-87
2022/01/03 03:28:36;;;;;;;28.58;4.55;;;8.70;99.90;;;;;;5092671;28;20044;-86
2022/01/03 03:31:03;;;;;;;23.90;3.78;;;8.80;99.90;;;;;;5120860;27;20071;-87
2022/01/03 03:33:30;;;;;;;25.50;3.85;;;8.80;99.90;;;;;;5119287;28;20067;-87
2022/01/03 03:35:57;;;;;;;29.00;5.75;;;8.90;99.90;;;;;;5090100;28;20036;-87
2022/01/03 03:38:25;;;;;;;33.05;5.07;;;8.80;99.90;;;;;;5093688;28;20448;-85
2022/01/03 03:40:51;;;;;;;23.27;4.78;;;8.80;99.90;;;;;;5093236;28;20387;-87
2022/01/03 03:43:20;;;;;;;26.15;3.45;;;8.80;99.90;;;;;;5089388;28;20048;-86
2022/01/03 03:45:48;;;;;;;25.92;4.63;;;8.80;99.90;;;;;;5096305;28;20172;-88
2022/01/03 03:48:14;;;;;;;26.55;4.50;;;8.80;99.90;;;;;;5087355;28;20044;-86
2022/01/03 03:50:40;;;;;;;22.30;4.00;;;8.90;99.90;;;;;;5091792;28;20600;-86
2022/01/03 03:53:05;;;;;;;25.80;4.25;;;8.80;99.90;;;;;;5087711;28;20040;-87
2022/01/03 03:55:31;;;;;;;24.17;3.70;;;8.80;99.90;;;;;;5089666;28;20085;-86
2022/01/03 03:57:58;;;;;;;22.17;3.20;;;8.80;99.90;;;;;;5087016;28;20055;-87
2022/01/03 04:00:23;;;;;;;26.10;4.15;;;8.90;99.90;;;;;;5092283;28;20042;-88
2022/01/03 04:02:49;;;;;;;28.23;4.03;;;8.90;99.90;;;;;;5083995;28;20040;-86
2022/01/03 04:05:15;;;;;;;23.13;4.38;;;8.90;99.90;;;;;;5091403;28;20107;-87
2022/01/03 04:07:40;;;;;;;23.33;3.65;;;8.90;99.90;;;;;;5095483;28;20505;-87
2022/01/03 04:10:09;;;;;;;26.05;4.00;;;9.00;99.90;;;;;;5091375;28;20076;-87
2022/01/03 04:12:35;;;;;;;26.48;4.78;;;9.00;99.90;;;;;;5089407;28;20075;-88
2022/01/03 04:15:01;;;;;;;23.27;3.08;;;9.00;99.90;;;;;;5090822;28;20044;-88
2022/01/03 04:17:26;;;;;;;25.35;4.72;;;9.00;99.90;;;;;;5094876;28;20040;-87
2022/01/03 04:19:52;;;;;;;31.02;4.85;;;9.00;99.90;;;;;;5076994;28;20528;-87
2022/01/03 04:22:17;;;;;;;23.63;4.00;;;9.00;99.90;;;;;;5092554;28;20127;-87
2022/01/03 04:24:43;;;;;;;25.15;3.65;;;9.10;99.90;;;;;;5097660;28;20520;-87
2022/01/03 04:27:09;;;;;;;40.60;5.85;;;9.10;99.90;;;;;;5097433;28;20040;-87
2022/01/03 04:29:34;;;;;;;24.92;4.30;;;9.10;99.90;;;;;;5128183;27;20093;-87
2022/01/03 04:32:00;;;;;;;28.33;4.47;;;9.10;99.90;;;;;;5095940;28;20339;-85
2022/01/03 04:34:25;;;;;;;25.30;4.07;;;8.90;99.90;;;;;;5096843;28;20036;-88
2022/01/03 04:36:51;;;;;;;33.63;6.18;;;9.10;99.90;;;;;;5098519;28;20669;-87
2022/01/03 04:39:17;;;;;;;27.15;4.35;;;9.10;99.90;;;;;;5098032;28;20066;-86
2022/01/03 04:41:42;;;;;;;32.40;5.22;;;9.10;99.90;;;;;;5092773;28;20054;-87
2022/01/03 04:44:08;;;;;;;26.10;4.63;;;9.10;99.90;;;;;;5095267;28;20121;-87
2022/01/03 04:46:35;;;;;;;32.38;4.00;;;9.20;99.90;;;;;;5131566;27;20035;-88
2022/01/03 04:49:01;;;;;;;33.42;5.40;;;9.20;99.90;;;;;;5093089;28;20129;-87
2022/01/03 04:51:26;;;;;;;34.67;5.47;;;9.20;99.90;;;;;;5091709;28;20073;-87
2022/01/03 04:53:52;;;;;;;30.33;4.72;;;9.20;99.90;;;;;;5086114;28;20118;-86
2022/01/03 04:56:18;;;;;;;29.63;4.53;;;9.20;99.90;;;;;;5094589;28;20035;-84
2022/01/03 04:58:44;;;;;;;28.60;4.95;;;9.10;99.90;;;;;;5094254;28;20040;-81
2022/01/03 05:01:10;;;;;;;26.10;5.05;;;9.10;99.90;;;;;;5092034;28;20058;-81
2022/01/03 05:03:36;;;;;;;33.35;5.22;;;9.10;99.90;;;;;;5088191;28;20047;-81
2022/01/03 05:06:02;;;;;;;28.77;4.22;;;9.20;99.90;;;;;;5084843;28;20044;-83
2022/01/03 05:08:29;;;;;;;31.00;4.30;;;9.10;99.90;;;;;;5081888;28;20047;-84
2022/01/03 05:10:56;;;;;;;40.63;5.93;;;9.10;99.90;;;;;;5083079;28;20459;-83
2022/01/03 05:13:21;;;;;;;27.20;5.22;;;9.10;99.90;;;;;;5109329;27;20041;-82
2022/01/03 05:15:47;;;;;;;25.50;4.68;;;9.10;99.90;;;;;;5081566;28;20029;-82
2022/01/03 05:18:13;;;;;;;32.58;4.93;;;9.10;99.90;;;;;;5083348;28;20406;-83
2022/01/03 05:20:39;;;;;;;27.00;4.82;;;9.10;99.90;;;;;;5112484;27;20044;-84
2022/01/03 05:23:05;;;;;;;30.15;6.60;;;9.10;99.90;;;;;;5084117;28;20043;-83
2022/01/03 05:25:30;;;;;;;34.50;5.43;;;9.10;99.90;;;;;;5080754;28;20040;-83
2022/01/03 05:27:56;;;;;;;30.73;5.43;;;9.10;99.90;;;;;;5082674;28;20510;-83
2022/01/03 05:30:22;;;;;;;34.33;5.65;;;9.10;99.90;;;;;;5081039;28;20044;-84
2022/01/03 05:32:48;;;;;;;28.00;4.50;;;9.10;99.90;;;;;;5077730;28;20108;-83
2022/01/03 05:35:13;;;;;;;34.15;5.88;;;9.10;99.90;;;;;;5113817;27;20378;-82
2022/01/03 05:37:39;;;;;;;29.15;4.57;;;9.00;99.90;;;;;;5075597;28;20052;-83
2022/01/03 05:40:06;;;;;;;29.70;5.05;;;9.00;99.90;;;;;;5078142;28;20047;-83
2022/01/03 05:42:32;;;;;;;30.33;4.70;;;8.90;99.90;;;;;;5080488;28;20510;-81
2022/01/03 05:44:57;;;;;;;34.40;6.78;;;8.90;99.90;;;;;;5080318;28;20044;-82
2022/01/03 05:47:23;;;;;;;32.28;6.53;;;8.90;99.90;;;;;;5111563;27;20117;-82
2022/01/03 05:49:49;;;;;;;31.90;5.00;;;8.90;99.90;;;;;;5079931;28;20032;-83
2022/01/03 05:52:15;;;;;;;32.92;5.25;;;8.90;99.90;;;;;;5074320;28;20043;-82
2022/01/03 05:54:40;;;;;;;29.38;4.38;;;8.90;99.90;;;;;;5081098;28;20036;-83
2022/01/03 05:57:06;;;;;;;30.15;5.00;;;8.90;99.90;;;;;;5076401;28;20096;-83
2022/01/03 05:59:32;;;;;;;32.38;6.20;;;8.90;99.90;;;;;;5111836;27;20044;-83
2022/01/03 06:01:58;;;;;;;39.10;6.38;;;9.00;99.90;;;;;;5082141;28;20044;-84
2022/01/03 06:04:35;;;;;;;25.65;4.55;;;9.00;99.90;;;;;;5080600;28;20214;-84
2022/01/03 06:07:07;;;;;;;32.38;4.38;;;9.10;99.90;;;;;;5081384;28;20044;-83
2022/01/03 06:09:33;;;;;;;30.48;5.22;;;9.00;99.90;;;;;;5077411;28;20048;-83
2022/01/03 06:11:59;;;;;;;38.55;6.90;;;9.10;99.90;;;;;;5075048;28;20051;-83
2022/01/03 06:14:25;;;;;;;28.38;4.00;;;9.10;99.90;;;;;;5082339;28;20040;-83
2022/01/03 06:16:52;;;;;;;32.80;5.38;;;9.10;99.90;;;;;;5079823;28;20587;-83
2022/01/03 06:19:21;;;;;;;32.90;4.60;;;9.10;99.90;;;;;;5079904;28;20077;-82
2022/01/03 06:21:47;;;;;;;32.28;5.05;;;9.00;99.90;;;;;;5079920;28;20042;-83
2022/01/03 06:24:15;;;;;;;37.15;5.88;;;9.00;99.90;;;;;;5082100;28;20449;-83
2022/01/03 06:26:43;;;;;;;30.30;5.45;;;9.00;99.90;;;;;;5076043;28;20748;-83
2022/01/03 06:29:19;;;;;;;30.45;4.90;;;9.00;99.90;;;;;;5080682;28;20037;-83
2022/01/03 06:31:46;;;;;;;26.38;3.83;;;9.00;99.90;;;;;;5078916;28;20039;-83
2022/01/03 06:34:12;;;;;;;30.52;5.82;;;9.00;99.90;;;;;;5077513;28;20049;-82
2022/01/03 06:36:38;;;;;;;33.90;5.13;;;9.00;99.90;;;;;;5078496;28;20055;-83
2022/01/03 06:39:05;;;;;;;33.35;4.82;;;9.00;99.90;;;;;;5082610;28;20044;-83
2022/01/03 06:41:31;;;;;;;25.95;5.30;;;9.00;99.90;;;;;;5076994;28;20048;-83
2022/01/03 06:43:57;;;;;;;31.00;5.72;;;9.00;99.90;;;;;;5077071;28;20044;-83
2022/01/03 06:46:23;;;;;;;24.58;4.47;;;9.00;99.90;;;;;;5081153;28;20055;-83
2022/01/03 06:48:49;;;;;;;34.35;5.05;;;9.00;99.90;;;;;;5080303;28;20063;-82
2022/01/03 06:51:15;;;;;;;30.73;5.47;;;9.00;99.90;;;;;;5080580;28;20040;-83
2022/01/03 06:53:41;;;;;;;32.60;5.20;;;9.00;99.90;;;;;;5076899;28;20048;-82
2022/01/03 06:56:07;;;;;;;35.55;5.35;;;9.00;99.90;;;;;;5078704;28;20047;-84
2022/01/03 06:58:33;;;;;;;32.45;5.57;;;9.00;99.90;;;;;;5111423;27;20040;-82
2022/01/03 07:00:59;;;;;;;33.08;6.25;;;9.10;99.90;;;;;;5063381;28;20629;-82
2022/01/03 07:03:24;;;;;;;32.35;5.10;;;9.00;99.90;;;;;;5079807;28;20560;-82
2022/01/03 07:05:50;;;;;;;35.38;6.00;;;9.00;99.90;;;;;;5081307;28;20043;-82
2022/01/03 07:08:16;;;;;;;31.88;4.80;;;9.00;99.90;;;;;;5085819;28;20056;-83
2022/01/03 07:10:41;;;;;;;42.60;7.97;;;9.10;99.90;;;;;;5082592;28;20041;-83
2022/01/03 07:13:07;;;;;;;29.08;7.10;;;9.00;99.90;;;;;;5083825;28;20132;-83
2022/01/03 07:21:02;;;;;;;32.47;7.53;;;9.10;99.90;;;;;;5086428;28;20059;-83
2022/01/03 07:23:28;;;;;;;34.50;5.70;;;9.10;99.90;;;;;;5096763;28;20039;-82
2022/01/03 07:25:59;;;;;;;38.42;6.88;;;9.20;99.90;;;;;;5120319;27;20104;-83
2022/01/03 07:28:25;;;;;;;38.30;5.93;;;9.20;99.90;;;;;;5086982;28;20051;-82
2022/01/03 07:30:51;;;;;;;37.58;6.72;;;9.20;99.90;;;;;;5077575;28;20053;-82
2022/01/03 07:33:17;;;;;;;32.33;5.30;;;9.20;99.90;;;;;;5079736;28;20062;-85
2022/01/03 07:35:43;;;;;;;33.33;5.90;;;9.20;99.90;;;;;;5084201;28;20380;-87
2022/01/03 07:38:09;;;;;;;27.20;5.68;;;9.20;99.90;;;;;;5084993;28;20032;-86
2022/01/03 07:40:35;;;;;;;35.08;4.90;;;9.20;99.90;;;;;;5087957;28;20387;-86
2022/01/03 07:43:01;;;;;;;30.02;4.28;;;9.30;99.90;;;;;;5087800;28;20040;-87
2022/01/03 07:45:27;;;;;;;30.80;4.60;;;9.30;99.90;;;;;;5087191;28;20406;-87
2022/01/03 07:47:53;;;;;;;33.10;5.13;;;9.30;99.90;;;;;;5089342;28;20051;-86
2022/01/03 07:50:19;;;;;;;31.08;4.90;;;9.30;99.90;;;;;;5090286;28;20042;-87
2022/01/03 07:52:45;;;;;;;35.95;6.75;;;9.30;99.90;;;;;;5084500;28;20071;-86
2022/01/03 07:55:13;;;;;;;33.63;5.35;;;9.30;99.90;;;;;;5120460;27;20068;-86
2022/01/03 07:57:39;;;;;;;26.92;4.60;;;9.30;99.90;;;;;;5086017;28;20089;-86
2022/01/03 08:00:07;;;;;;;30.35;4.80;;;9.30;99.90;;;;;;5088728;28;20089;-86
2022/01/03 08:02:33;;;;;;;32.63;6.72;;;9.30;99.90;;;;;;5091352;28;20062;-85
2022/01/03 08:04:58;;;;;;;28.73;5.40;;;9.30;99.90;;;;;;5088974;28;20040;-87
2022/01/03 08:07:24;;;;;;;32.83;5.88;;;9.40;99.90;;;;;;5085330;28;20044;-87
2022/01/03 08:09:49;;;;;;;33.10;5.90;;;9.40;99.90;;;;;;5085934;28;20037;-88
2022/01/03 08:12:16;;;;;;;33.58;5.55;;;9.40;99.90;;;;;;5084576;28;21090;-87
2022/01/03 08:14:42;;;;;;;22.35;4.15;;;9.40;99.90;;;;;;5090752;28;20036;-87
2022/01/03 08:17:08;;;;;;;34.55;6.18;;;9.40;99.90;;;;;;5089957;28;20175;-88
2022/01/03 08:19:34;;;;;;;33.40;5.97;;;9.40;99.90;;;;;;5093258;28;20115;-87
2022/01/03 08:22:00;;;;;;;25.27;4.57;;;9.40;99.90;;;;;;5090673;28;20565;-87
2022/01/03 08:24:27;;;;;;;32.45;5.35;;;9.40;99.90;;;;;;5088570;28;20036;-85
2022/01/03 08:26:53;;;;;;;33.42;5.35;;;9.50;99.90;;;;;;5082199;28;20494;-86
2022/01/03 08:29:18;;;;;;;33.28;5.25;;;9.40;99.90;;;;;;5084290;28;20059;-85
2022/01/03 08:31:44;;;;;;;32.10;4.75;;;9.50;99.90;;;;;;5092276;28;20032;-84
2022/01/03 08:34:09;;;;;;;35.42;6.10;;;9.50;99.90;;;;;;5090666;28;20028;-85
2022/01/03 08:36:35;;;;;;;36.45;7.38;;;9.60;99.90;;;;;;5085288;28;20036;-85
2022/01/03 08:39:01;;;;;;;26.00;4.70;;;9.50;99.90;;;;;;5084901;28;20097;-86
2022/01/03 08:41:27;;;;;;;36.20;6.60;;;9.60;99.90;;;;;;5089216;28;20083;-86
2022/01/03 08:43:52;;;;;;;25.58;4.63;;;9.60;99.90;;;;;;5081228;28;20068;-86
2022/01/03 08:46:19;;;;;;;29.63;4.32;;;9.60;99.90;;;;;;5089289;28;20174;-86
2022/01/03 08:48:45;;;;;;;28.58;4.43;;;9.60;99.90;;;;;;5094800;28;20048;-86
2022/01/03 08:51:11;;;;;;;41.83;6.80;;;9.60;99.90;;;;;;5102199;28;20044;-86
2022/01/03 08:53:37;;;;;;;36.60;5.63;;;9.60;99.90;;;;;;5084971;28;20047;-85
2022/01/03 08:56:03;;;;;;;27.33;4.30;;;9.60;99.90;;;;;;5090027;28;20085;-85
2022/01/03 08:58:29;;;;;;;32.47;4.82;;;9.60;99.90;;;;;;5123909;27;20049;-84
2022/01/03 09:00:55;;;;;;;26.98;4.40;;;9.60;99.90;;;;;;5118825;27;20047;-86
2022/01/03 09:03:21;;;;;;;24.02;3.83;;;9.70;99.90;;;;;;5079505;28;20554;-86
2022/01/03 09:05:49;;;;;;;27.92;4.00;;;9.80;99.90;;;;;;5088055;28;20119;-85
2022/01/03 09:08:17;;;;;;;29.27;5.28;;;9.70;99.90;;;;;;5086639;28;20040;-85
2022/01/03 09:10:42;;;;;;;26.98;4.72;;;9.70;99.90;;;;;;5090312;28;20041;-86
2022/01/03 09:13:08;;;;;;;23.92;5.22;;;10.10;99.90;;;;;;5092044;28;20036;-86
2022/01/03 09:15:34;;;;;;;27.08;4.07;;;9.70;99.90;;;;;;5080509;28;20571;-86
2022/01/03 09:17:59;;;;;;;28.13;4.25;;;9.80;99.90;;;;;;5088719;28;20035;-85
2022/01/03 09:20:25;;;;;;;30.50;5.20;;;9.80;99.90;;;;;;5083065;28;20040;-84
2022/01/03 09:22:54;;;;;;;29.45;5.65;;;9.80;99.90;;;;;;5085464;28;20089;-84
2022/01/03 09:30:45;;;;;;;24.63;5.30;;;9.80;99.90;;;;;;5086355;28;20040;-85
2022/01/03 09:33:12;;;;;;;25.67;3.70;;;9.80;99.90;;;;;;5085583;28;20032;-84
2022/01/03 09:35:38;;;;;;;22.75;4.00;;;9.80;99.90;;;;;;5117642;27;20765;-85
2022/01/03 09:38:04;;;;;;;21.38;4.97;;;9.90;99.90;;;;;;5082529;28;20415;-85
2022/01/03 09:40:31;;;;;;;25.40;4.45;;;9.90;99.90;;;;;;5092907;28;20028;-86
2022/01/03 09:42:59;;;;;;;27.98;5.78;;;9.90;99.90;;;;;;5086888;28;20040;-85
2022/01/03 09:45:32;;;;;;;32.80;5.35;;;9.90;99.90;;;;;;5094802;28;20050;-84
2022/01/03 09:48:00;;;;;;;25.20;4.25;;;9.90;99.90;;;;;;5084804;28;20437;-85
2022/01/03 09:50:26;;;;;;;23.48;3.92;;;10.00;99.90;;;;;;5118944;27;20076;-86
2022/01/03 09:52:52;;;;;;;34.33;5.18;;;10.00;99.90;;;;;;5087911;28;20067;-86
2022/01/03 09:55:21;;;;;;;40.15;5.68;;;10.00;99.90;;;;;;5083722;28;20156;-83
2022/01/03 09:57:47;;;;;;;30.75;6.10;;;10.00;99.90;;;;;;5081014;28;20068;-86
2022/01/03 10:00:16;;;;;;;25.92;5.20;;;10.00;99.90;;;;;;5084103;28;20040;-85
2022/01/03 10:02:44;;;;;;;29.05;5.90;;;10.00;99.90;;;;;;5076634;28;20044;-86
2022/01/03 10:05:10;;;;;;;30.90;4.40;;;10.00;99.90;;;;;;5088512;28;20036;-85
2022/01/03 10:07:39;;;;;;;39.85;5.72;;;10.00;99.90;;;;;;5114994;27;20036;-86
2022/01/03 10:10:06;;;;;;;28.60;5.20;;;10.00;99.90;;;;;;5084607;28;20375;-85
2022/01/03 10:12:33;;;;;;;40.17;6.75;;;10.00;99.90;;;;;;5081871;28;20763;-85
2022/01/03 10:14:59;;;;;;;27.52;5.10;;;10.00;99.90;;;;;;5083485;28;20040;-87
2022/01/03 10:17:25;;;;;;;35.03;5.57;;;10.00;99.90;;;;;;5080893;28;20467;-86
2022/01/03 10:19:56;;;;;;;27.40;4.57;;;10.00;99.90;;;;;;5087948;28;20044;-87
2022/01/03 10:22:25;;;;;;;26.05;4.93;;;10.00;99.90;;;;;;5082195;28;20044;-85
2022/01/03 10:24:51;;;;;;;33.03;6.93;;;10.20;99.90;;;;;;5082359;28;20088;-85
2022/01/03 10:27:17;;;;;;;30.50;4.65;;;10.10;99.90;;;;;;5081965;28;20130;-85
2022/01/03 10:29:56;;;;;;;25.67;4.57;;;10.20;99.90;;;;;;5082944;28;20119;-86
2022/01/03 10:32:28;;;;;;;28.13;4.80;;;10.10;99.90;;;;;;5088352;28;20522;-86
2022/01/03 10:34:58;;;;;;;26.02;5.15;;;10.20;99.90;;;;;;5084720;28;20059;-86
2022/01/03 10:37:36;;;;;;;29.17;4.85;;;10.20;99.90;;;;;;5080045;28;20139;-83
2022/01/03 10:40:19;;;;;;;25.05;4.15;;;10.20;99.90;;;;;;5081547;28;20686;-84
2022/01/03 10:42:46;;;;;;;26.23;4.63;;;10.20;99.90;;;;;;5083187;28;20408;-84
2022/01/03 10:45:12;;;;;;;22.40;4.70;;;10.30;99.90;;;;;;5080356;28;20047;-84
2022/01/03 10:47:41;;;;;;;30.02;6.15;;;10.20;99.90;;;;;;5080085;28;20035;-85
2022/01/03 10:50:18;;;;;;;22.63;4.47;;;10.20;99.90;;;;;;5085258;28;20036;-84
2022/01/03 10:52:46;;;;;;;28.17;4.97;;;10.20;99.90;;;;;;5069112;28;20032;-83
2022/01/03 10:55:19;;;;;;;30.80;5.53;;;10.20;99.90;;;;;;5082408;28;20524;-83
2022/01/03 10:57:55;;;;;;;23.17;3.88;;;10.20;99.90;;;;;;5080193;28;20056;-84
2022/01/03 11:00:23;;;;;;;;;;;10.20;99.90;;;;;;5083519;28;20047;-84
2022/01/03 11:03:32;;;;;;;26.20;4.40;;;10.20;99.90;;;;;;5079024;28;19945;-83
2022/01/03 11:06:20;;;;;;;19.05;3.80;;;10.30;99.90;;;;;;5085193;28;20043;-83
2022/01/03 11:11:51;;;;;;;26.38;4.60;;;10.30;99.90;;;;;;5085318;28;20044;-83
2022/01/03 11:14:33;;;;;;;;;;;10.30;99.90;;;;;;5081718;28;20043;-84
2022/01/03 11:17:03;;;;;;;25.10;4.18;;;10.30;99.90;;;;;;5115436;27;19924;-84
2022/01/03 11:19:39;;;;;;;25.10;4.18;;;10.40;99.90;;;;;;5081459;28;20105;-84
2022/01/03 11:22:05;;;;;;;27.67;4.40;;;10.40;99.90;;;;;;5082118;28;20040;-83
2022/01/03 11:24:31;;;;;;;24.70;5.07;;;10.60;99.90;;;;;;5078826;28;20112;-83
2022/01/03 11:26:57;;;;;;;23.10;4.78;;;10.60;99.90;;;;;;5080279;28;20039;-83
2022/01/03 11:29:23;;;;;;;25.98;4.63;;;10.80;99.90;;;;;;5078111;28;20041;-83
2022/01/03 11:31:54;;;;;;;26.52;5.35;;;10.90;99.90;;;;;;5081284;28;20403;-82
2022/01/03 11:34:25;;;;;;;21.02;3.92;;;11.00;99.90;;;;;;5079886;28;20505;-83
2022/01/03 11:36:51;;;;;;;23.13;3.30;;;11.00;99.90;;;;;;5080985;28;20090;-84
2022/01/03 11:39:20;;;;;;;24.65;4.65;;;11.00;99.90;;;;;;5082776;28;20040;-85
2022/01/03 11:41:46;;;;;;;18.85;4.40;;;11.10;99.90;;;;;;5116022;27;20371;-85
2022/01/03 11:44:15;;;;;;;20.40;4.30;;;11.20;99.90;;;;;;5076770;28;20074;-85
2022/01/03 11:46:44;;;;;;;33.85;5.10;;;11.20;99.90;;;;;;5087518;28;20532;-84
2022/01/03 11:49:10;;;;;;;16.85;3.78;;;11.10;99.90;;;;;;5086056;28;20039;-86
2022/01/03 11:51:38;;;;;;;21.80;3.75;;;11.00;99.90;;;;;;5080870;28;20044;-87
2022/01/03 11:54:05;;;;;;;26.17;4.97;;;10.90;99.90;;;;;;5084476;28;20408;-87
2022/01/03 11:56:32;;;;;;;21.80;4.57;;;10.90;99.90;;;;;;5089108;28;20068;-86
2022/01/03 12:04:38;;;;;;;21.95;4.53;;;10.90;99.90;;;;;;5085941;28;20044;-86
2022/01/03 12:07:16;;;;;;;25.60;4.38;;;11.00;99.90;;;;;;5087411;28;20386;-86
2022/01/03 12:09:50;;;;;;;27.13;5.68;;;11.00;99.90;;;;;;5085747;28;20386;-87
2022/01/03 12:12:34;;;;;;;22.35;4.38;;;11.00;99.90;;;;;;5082636;28;20052;-86
2022/01/03 12:15:02;;;;;;;22.52;4.53;;;11.10;99.90;;;;;;5090592;28;20040;-85
2022/01/03 12:17:47;;;;;;;21.77;4.55;;;11.00;99.90;;;;;;5115129;27;20075;-87
2022/01/03 12:20:14;;;;;;;22.77;5.45;;;10.90;99.90;;;;;;5087699;28;20370;-86
2022/01/03 12:22:48;;;;;;;23.73;4.60;;;11.00;99.90;;;;;;5082321;28;20082;-85
2022/01/03 12:25:28;;;;;;;21.27;3.45;;;10.90;99.90;;;;;;5085273;28;20040;-87
2022/01/03 12:27:56;;;;;;;21.38;4.10;;;10.90;99.90;;;;;;5082738;28;20119;-86
2022/01/03 12:30:24;;;;;;;29.75;5.47;;;10.90;99.90;;;;;;5090369;28;20643;-86
2022/01/03 12:33:06;;;;;;;25.08;5.43;;;10.90;99.90;;;;;;5087371;28;20033;-86
2022/01/03 12:35:34;;;;;;;22.35;3.95;;;10.90;99.90;;;;;;5085696;28;20367;-87
2022/01/03 12:38:02;;;;;;;20.92;3.80;;;10.90;99.90;;;;;;5090982;28;20449;-86
2022/01/03 12:40:43;;;;;;;19.83;4.88;;;10.90;99.90;;;;;;5102631;27;21322;-86
2022/01/03 12:43:12;;;;;;;26.30;4.65;;;10.90;99.90;;;;;;5091562;28;20161;-85
2022/01/03 12:45:42;;;;;;;27.52;5.03;;;10.80;99.90;;;;;;5091087;28;20040;-86
2022/01/03 12:48:11;;;;;;;34.00;6.10;;;10.90;99.90;;;;;;5086712;28;20043;-85
2022/01/03 12:50:41;;;;;;;21.05;4.30;;;10.80;99.90;;;;;;5086594;28;20090;-86
2022/01/03 12:53:09;;;;;;;30.10;4.65;;;10.80;99.90;;;;;;5116344;27;20076;-85
2022/01/03 12:55:38;;;;;;;25.52;4.55;;;10.90;99.90;;;;;;5085978;28;20063;-87
2022/01/03 12:58:18;;;;;;;24.55;4.65;;;10.80;99.90;;;;;;5084753;28;20048;-86
2022/01/03 13:00:55;;;;;;;27.00;5.88;;;10.80;99.90;;;;;;5090359;28;20039;-87
2022/01/03 13:03:22;;;;;;;22.83;3.92;;;10.80;99.90;;;;;;5094705;28;20039;-86
2022/01/03 13:06:12;;;;;;;22.48;4.05;;;10.80;99.90;;;;;;5090680;28;20047;-85
2022/01/03 13:08:43;;;;;;;31.90;5.35;;;10.80;99.90;;;;;;5089228;28;20576;-86
2022/01/03 13:11:14;;;;;;;24.23;4.10;;;10.80;99.90;;;;;;5087866;28;20126;-85
2022/01/03 13:13:41;;;;;;;33.22;6.55;;;10.80;99.90;;;;;;5095919;28;20032;-85